Time;durP1;ratioP1;P1;durP2;ratioP2;P2;SDS_P1;SDS_P2;PMS_P1;PMS_P2;Temp;Humidity;BMP_temperature;BMP_pressure;BME280_temperature;BME280_humidity;BME280_pressure;Samples;Min_cycle;Max_cycle;Signal;HPM_P1;HPM_P2
2023/03/20 00:01:19;;;;;;;4.50;2.40;;;;;;;17.98;56.51;100619.13;5071614;28;20432;-63
2023/03/20 00:03:44;;;;;;;4.03;2.37;;;;;;;17.99;56.21;100620.78;5086766;28;20428;-63
2023/03/20 00:06:20;;;;;;;5.60;2.47;;;;;;;17.99;56.09;100624.47;5085155;28;20467;-63
2023/03/20 00:08:46;;;;;;;5.30;1.97;;;;;;;17.99;56.04;100621.63;5049694;28;20936;-63
2023/03/20 00:11:27;;;;;;;3.10;1.83;;;;;;;17.99;55.93;100621.63;5060971;28;20441;-63
2023/03/20 00:13:57;;;;;;;3.60;1.90;;;;;;;18.01;56.18;100627.78;5068763;28;20405;-63
2023/03/20 00:16:23;;;;;;;3.03;1.83;;;;;;;18.01;56.28;100629.81;5068394;28;20402;-63
2023/03/20 00:18:48;;;;;;;3.50;1.83;;;;;;;17.99;56.20;100630.19;5068504;28;20788;-63
2023/03/20 00:21:17;;;;;;;4.20;2.40;;;;;;;18.00;55.79;100628.97;5058211;28;20187;-63
2023/03/20 00:23:43;;;;;;;3.03;1.80;;;;;;;17.99;55.85;100633.03;5060785;28;20194;-63
2023/03/20 00:26:14;;;;;;;3.20;1.77;;;;;;;18.00;55.83;100628.13;5088545;28;20466;-63
2023/03/20 00:28:46;;;;;;;3.83;2.07;;;;;;;18.01;56.06;100626.97;5059978;28;20202;-63
2023/03/20 00:31:28;;;;;;;4.60;1.90;;;;;;;18.01;55.94;100629.81;5051387;28;20413;-63
2023/03/20 00:33:57;;;;;;;5.47;2.10;;;;;;;17.99;55.93;100629.34;5051529;28;20445;-63
2023/03/20 00:36:22;;;;;;;3.67;2.27;;;;;;;17.98;56.09;100630.53;5069780;28;20410;-63
2023/03/20 00:38:48;;;;;;;3.20;1.53;;;;;;;17.99;56.09;100638.75;5069558;28;20428;-63
2023/03/20 00:41:32;;;;;;;3.00;1.50;;;;;;;17.99;56.03;100638.75;5083097;28;20194;-63
2023/03/20 00:44:03;;;;;;;2.73;1.50;;;;;;;17.99;56.04;100650.19;5038015;28;20209;-63
2023/03/20 00:46:29;;;;;;;4.03;1.97;;;;;;;17.99;56.12;100647.31;5049154;28;20539;-63
2023/03/20 00:48:54;;;;;;;2.20;1.30;;;;;;;17.98;56.29;100636.25;5031601;28;20414;-63
2023/03/20 00:51:20;;;;;;;2.87;1.60;;;;;;;17.98;56.26;100639.97;5057108;28;20216;-63
2023/03/20 00:53:45;;;;;;;3.40;2.00;;;;;;;17.99;56.36;100644.47;5069058;28;20175;-63
2023/03/20 00:56:26;;;;;;;2.70;1.50;;;;;;;17.99;56.23;100638.75;5059015;28;20191;-63
2023/03/20 00:58:51;;;;;;;4.43;1.70;;;;;;;17.98;56.26;100641.97;5037777;28;20207;-63
2023/03/20 01:01:17;;;;;;;2.23;1.67;;;;;;;17.98;55.87;100637.09;5052224;28;20429;-63
2023/03/20 01:03:43;;;;;;;2.70;1.80;;;;;;;17.99;56.39;100637.91;5051032;28;20187;-63
2023/03/20 01:06:08;;;;;;;4.10;1.93;;;;;;;18.00;56.02;100639.56;5037128;28;20207;-63
2023/03/20 01:08:34;;;;;;;2.47;1.57;;;;;;;17.98;56.17;100645.66;5050997;28;20424;-63
2023/03/20 01:10:59;;;;;;;3.93;1.90;;;;;;;17.99;56.41;100635.06;5069712;28;20171;-63
2023/03/20 01:13:26;;;;;;;3.47;1.77;;;;;;;17.98;56.18;100639.97;5087374;28;20182;-63
2023/03/20 01:15:52;;;;;;;5.03;2.00;;;;;;;17.97;56.11;100635.41;5053801;28;20194;-63
2023/03/20 01:18:19;;;;;;;3.47;1.70;;;;;;;17.98;56.14;100641.97;5068963;28;20413;-63
2023/03/20 01:20:45;;;;;;;4.83;1.80;;;;;;;17.98;56.20;100634.25;5053186;28;20441;-63
2023/03/20 01:23:10;;;;;;;2.93;1.60;;;;;;;17.99;56.33;100649.34;5050726;28;20409;-63
2023/03/20 01:25:36;;;;;;;2.47;1.67;;;;;;;17.97;56.32;100641.13;5052769;28;20183;-63
2023/03/20 01:28:02;;;;;;;2.40;1.50;;;;;;;17.96;56.29;100647.25;5030896;28;20216;-63
2023/03/20 01:30:29;;;;;;;5.00;1.83;;;;;;;17.96;56.48;100642.34;5032493;28;20214;-63
2023/03/20 01:32:55;;;;;;;3.73;1.97;;;;;;;17.96;56.51;100652.94;5070713;28;20191;-63
2023/03/20 01:35:21;;;;;;;3.33;1.90;;;;;;;17.97;56.47;100663.97;5072160;28;20467;-63
2023/03/20 01:37:47;;;;;;;3.00;1.80;;;;;;;17.97;56.21;100661.13;5073750;28;20244;-63
2023/03/20 01:40:29;;;;;;;2.57;1.60;;;;;;;17.96;56.21;100662.34;5056053;28;20550;-63
2023/03/20 01:42:55;;;;;;;3.00;1.80;;;;;;;17.96;56.29;100668.03;5034264;28;20947;-63
2023/03/20 01:45:23;;;;;;;4.80;1.73;;;;;;;17.96;56.08;100659.47;5053789;28;20418;-63
2023/03/20 01:47:50;;;;;;;2.80;1.37;;;;;;;17.96;56.04;100652.94;5068183;28;20202;-63
2023/03/20 01:50:28;;;;;;;2.67;1.53;;;;;;;17.96;56.16;100662.34;5054254;28;20422;-63
2023/03/20 01:53:21;;;;;;;3.10;1.63;;;;;;;17.95;56.23;100662.69;5082237;28;20446;-63
2023/03/20 01:55:46;;;;;;;3.13;1.73;;;;;;;17.95;56.19;100666.41;5081760;28;20441;-63
2023/03/20 01:58:36;;;;;;;2.50;1.70;;;;;;;17.95;56.31;100659.84;5088109;28;20440;-63
2023/03/20 02:01:02;;;;;;;3.07;1.70;;;;;;;17.95;55.96;100666.41;5073263;28;20240;-63
2023/03/20 02:03:27;;;;;;;3.00;1.60;;;;;;;17.96;56.48;100665.19;5074118;28;20403;-63
2023/03/20 02:05:54;;;;;;;2.47;1.60;;;;;;;17.96;56.59;100672.94;5073960;28;20448;-63
2023/03/20 02:08:30;;;;;;;2.67;1.80;;;;;;;17.93;56.45;100671.66;5069679;28;20241;-63
2023/03/20 02:10:57;;;;;;;3.67;1.80;;;;;;;17.93;56.44;100670.81;5073113;28;20413;-63
2023/03/20 02:13:22;;;;;;;2.90;1.47;;;;;;;17.95;56.43;100672.09;5059905;28;21254;-63
2023/03/20 02:16:02;;;;;;;4.30;2.10;;;;;;;17.93;56.18;100674.50;5091901;28;20432;-63
2023/03/20 02:18:28;;;;;;;3.20;1.83;;;;;;;17.95;56.40;100679.84;5089349;28;20209;-63
2023/03/20 02:21:00;;;;;;;3.87;2.10;;;;;;;17.95;56.05;100671.25;5054822;28;20510;-63
2023/03/20 02:23:47;;;;;;;2.83;1.77;;;;;;;17.96;56.15;100673.75;5071289;28;20428;-63
2023/03/20 02:26:21;;;;;;;3.03;1.80;;;;;;;17.96;56.13;100673.75;5039483;28;20408;-63
2023/03/20 02:28:52;;;;;;;3.23;1.47;;;;;;;17.96;56.17;100678.66;5055665;28;20460;-63
2023/03/20 02:31:48;;;;;;;2.50;1.50;;;;;;;17.97;56.06;100683.16;5070884;28;20417;-63
2023/03/20 02:34:41;;;;;;;3.10;1.73;;;;;;;17.96;56.18;100672.94;5073278;28;20437;-63
2023/03/20 02:37:31;;;;;;;2.83;1.40;;;;;;;17.96;56.39;100685.19;5071161;28;21062;-63
2023/03/20 02:40:08;;;;;;;4.67;1.80;;;;;;;17.95;56.23;100686.38;5073401;28;20420;-64
2023/03/20 02:42:44;;;;;;;2.43;1.50;;;;;;;17.93;56.38;100691.66;5052471;28;20904;-63
2023/03/20 02:45:17;;;;;;;3.00;1.90;;;;;;;17.96;56.18;100701.50;5037241;28;20433;-63
2023/03/20 02:47:50;;;;;;;2.60;1.40;;;;;;;17.93;56.32;100691.66;5070879;28;20469;-63
2023/03/20 02:50:53;;;;;;;2.30;1.60;;;;;;;17.93;56.29;100691.66;5064901;28;20436;-63
2023/03/20 02:53:51;;;;;;;2.47;1.30;;;;;;;17.93;56.31;100690.81;5070312;28;20558;-63
2023/03/20 02:56:32;;;;;;;2.63;1.50;;;;;;;17.94;56.49;100693.31;5050905;28;21075;-63
2023/03/20 02:59:16;;;;;;;2.63;1.60;;;;;;;17.92;56.41;100692.84;5050935;28;20426;-63
2023/03/20 03:01:44;;;;;;;2.63;1.90;;;;;;;17.93;56.38;100691.66;5072339;28;20421;-63
2023/03/20 03:04:17;;;;;;;2.33;1.47;;;;;;;17.93;56.42;100694.50;5037655;28;20467;-63
2023/03/20 03:06:43;;;;;;;3.40;1.83;;;;;;;17.92;56.55;100695.72;5069260;28;20500;-63
2023/03/20 03:09:21;;;;;;;2.10;1.10;;;;;;;17.92;56.33;100692.84;5072135;28;20899;-62
2023/03/20 03:11:55;;;;;;;2.80;1.57;;;;;;;17.92;56.29;100695.72;5052848;28;20455;-63
2023/03/20 03:14:36;;;;;;;2.50;1.40;;;;;;;17.92;56.44;100704.28;5070369;28;20915;-62
2023/03/20 03:17:03;;;;;;;3.43;1.70;;;;;;;17.91;56.46;100691.16;5051836;28;20425;-62
2023/03/20 03:19:28;;;;;;;2.57;1.67;;;;;;;17.92;56.70;100707.13;5052406;28;20436;-62
2023/03/20 03:21:54;;;;;;;6.83;1.80;;;;;;;17.93;56.40;100700.22;5054496;28;20494;-62
2023/03/20 03:24:33;;;;;;;2.50;1.50;;;;;;;17.93;56.30;100707.94;5070292;28;20256;-63
2023/03/20 03:27:00;;;;;;;2.63;1.30;;;;;;;17.92;56.42;100694.88;5052954;28;20205;-63
2023/03/20 03:29:30;;;;;;;2.47;1.40;;;;;;;17.91;56.33;100711.16;5051209;28;20554;-62
2023/03/20 03:31:55;;;;;;;2.50;1.50;;;;;;;17.91;56.40;100704.63;5038266;28;20524;-63
2023/03/20 03:34:21;;;;;;;2.90;1.70;;;;;;;17.91;56.32;100704.63;5051799;28;20436;-63
2023/03/20 03:37:01;;;;;;;2.63;1.30;;;;;;;17.91;56.62;100705.44;5057998;28;20179;-63
2023/03/20 03:39:44;;;;;;;3.17;1.40;;;;;;;17.91;56.68;100699.75;5069955;28;20175;-63
2023/03/20 03:42:23;;;;;;;2.53;1.40;;;;;;;17.90;56.48;100695.22;5058250;28;20526;-63
2023/03/20 03:45:10;;;;;;;2.70;1.30;;;;;;;17.90;56.75;100695.22;5078423;28;20428;-63
2023/03/20 03:47:46;;;;;;;3.00;1.53;;;;;;;17.90;56.46;100697.28;5067903;28;20468;-63
2023/03/20 03:50:15;;;;;;;2.40;1.30;;;;;;;17.90;56.48;100694.41;5029932;28;20409;-63
2023/03/20 03:52:40;;;;;;;3.50;1.60;;;;;;;17.91;56.28;100688.31;5029350;28;20446;-63
2023/03/20 03:55:11;;;;;;;3.63;1.63;;;;;;;17.90;56.42;100695.22;5066025;28;21202;-62
2023/03/20 03:57:44;;;;;;;2.17;1.30;;;;;;;17.89;56.48;100693.56;5033554;28;20159;-62
2023/03/20 04:00:10;;;;;;;2.90;1.30;;;;;;;17.89;56.49;100689.88;5052709;28;20445;-62
2023/03/20 04:02:36;;;;;;;1.90;1.00;;;;;;;17.91;56.04;100704.63;5051859;28;20421;-62
2023/03/20 04:05:01;;;;;;;2.20;1.30;;;;;;;17.90;56.35;100695.22;5059724;28;20424;-62
2023/03/20 04:07:27;;;;;;;2.70;1.40;;;;;;;17.89;56.14;100702.16;5062347;28;20280;-62
2023/03/20 04:09:53;;;;;;;2.80;1.50;;;;;;;17.89;56.51;100696.44;5078390;28;20233;-62
2023/03/20 04:12:42;;;;;;;2.67;1.47;;;;;;;17.90;56.59;100703.00;5090123;28;20416;-63
2023/03/20 04:15:08;;;;;;;2.50;1.33;;;;;;;17.88;56.30;100706.19;5068852;28;20186;-63
2023/03/20 04:17:33;;;;;;;1.90;1.20;;;;;;;17.89;56.40;100716.44;5055947;28;20817;-63
2023/03/20 04:19:59;;;;;;;2.00;1.40;;;;;;;17.89;56.29;100709.88;5053653;28;20298;-63
2023/03/20 04:22:24;;;;;;;2.10;1.40;;;;;;;17.88;56.29;100717.63;5051791;28;20183;-63
2023/03/20 04:24:50;;;;;;;5.93;1.50;;;;;;;17.91;56.32;100727.50;5051509;28;20512;-63
2023/03/20 04:27:16;;;;;;;3.10;1.33;;;;;;;17.90;56.48;100731.56;5071555;28;20207;-63
2023/03/20 04:29:42;;;;;;;2.27;1.40;;;;;;;17.90;56.31;100731.56;5069199;28;20238;-63
2023/03/20 04:32:07;;;;;;;2.30;1.30;;;;;;;17.89;56.44;100733.56;5071811;28;20187;-63
2023/03/20 04:34:33;;;;;;;2.73;1.53;;;;;;;17.88;56.35;100740.47;5069422;28;20413;-63
2023/03/20 04:37:00;;;;;;;2.83;1.50;;;;;;;17.89;56.41;100736.41;5067878;28;20194;-64
2023/03/20 04:39:25;;;;;;;2.73;1.40;;;;;;;17.89;56.67;100736.41;5053220;28;20547;-63
2023/03/20 04:41:51;;;;;;;3.10;1.40;;;;;;;17.89;56.22;100727.84;5069439;28;20515;-63
2023/03/20 04:44:16;;;;;;;2.80;1.60;;;;;;;17.88;56.79;100717.63;5071358;28;20190;-63
2023/03/20 04:46:42;;;;;;;2.17;1.27;;;;;;;17.88;56.13;100719.66;5068946;28;20867;-63
2023/03/20 04:49:07;;;;;;;2.97;1.40;;;;;;;17.88;56.31;100705.38;5067748;28;20194;-63
2023/03/20 04:51:33;;;;;;;2.70;1.40;;;;;;;17.88;56.56;100717.63;5086008;28;20193;-64
2023/03/20 04:53:58;;;;;;;2.80;1.40;;;;;;;17.89;56.27;100719.28;5071184;28;20170;-63
2023/03/20 04:56:23;;;;;;;2.27;1.33;;;;;;;17.88;56.46;100722.50;5062124;28;20187;-63
2023/03/20 04:58:49;;;;;;;2.53;1.60;;;;;;;17.86;56.46;100717.16;5068972;28;20186;-63
2023/03/20 05:01:14;;;;;;;2.70;1.30;;;;;;;17.88;56.28;100719.66;5068451;28;20159;-63
2023/03/20 05:03:40;;;;;;;2.53;1.30;;;;;;;17.88;56.39;100720.50;5086920;28;20232;-64
2023/03/20 05:06:06;;;;;;;2.67;1.50;;;;;;;17.87;56.38;100720.84;5091783;28;20297;-63
2023/03/20 05:08:31;;;;;;;2.47;1.43;;;;;;;17.86;56.40;100722.03;5058089;28;20210;-63
2023/03/20 05:10:57;;;;;;;2.40;1.40;;;;;;;17.87;56.48;100733.13;5072782;28;20175;-64
2023/03/20 05:13:22;;;;;;;2.60;1.30;;;;;;;17.85;56.32;100721.22;5071873;28;20187;-63
2023/03/20 05:15:47;;;;;;;3.50;1.87;;;;;;;17.86;56.36;100722.84;5074329;28;20209;-63
2023/03/20 05:18:13;;;;;;;2.37;1.53;;;;;;;17.86;56.44;100722.03;5072796;28;20202;-63
2023/03/20 05:20:38;;;;;;;2.40;1.37;;;;;;;17.87;56.66;100721.69;5074835;28;20183;-63
2023/03/20 05:23:04;;;;;;;2.70;1.47;;;;;;;17.86;56.46;100728.56;5072683;28;20171;-64
2023/03/20 05:25:30;;;;;;;2.50;1.40;;;;;;;17.85;56.46;100732.63;5072341;28;20163;-64
2023/03/20 05:27:55;;;;;;;3.30;1.30;;;;;;;17.85;56.22;100735.47;5072506;28;20203;-64
2023/03/20 05:30:21;;;;;;;1.90;1.20;;;;;;;17.86;56.48;100724.91;5055838;28;20202;-64
2023/03/20 05:32:50;;;;;;;3.37;1.80;;;;;;;17.86;56.23;100733.47;5071526;28;20182;-64
2023/03/20 05:35:16;;;;;;;2.70;1.60;;;;;;;17.86;56.72;100730.63;5077266;28;20192;-62
2023/03/20 05:37:42;;;;;;;2.23;1.23;;;;;;;17.86;56.11;100731.44;5080196;28;20437;-62
2023/03/20 05:40:12;;;;;;;3.00;1.40;;;;;;;17.85;56.23;100718.34;5070988;28;20179;-62
2023/03/20 05:42:37;;;;;;;2.63;1.50;;;;;;;17.86;56.13;100722.03;5055834;28;20558;-63
2023/03/20 05:45:03;;;;;;;3.83;1.50;;;;;;;17.85;56.52;100735.47;5069242;28;20409;-63
2023/03/20 05:47:29;;;;;;;2.97;1.47;;;;;;;17.86;56.62;100739.19;5076916;28;20231;-63
2023/03/20 05:49:54;;;;;;;2.10;1.20;;;;;;;17.86;56.76;100739.19;5091594;28;20465;-63
2023/03/20 05:52:20;;;;;;;2.20;1.33;;;;;;;17.86;56.47;100737.13;5089736;28;20174;-63
2023/03/20 05:54:46;;;;;;;2.33;1.50;;;;;;;17.84;56.63;100738.69;5073141;28;20635;-63
2023/03/20 05:57:11;;;;;;;3.60;1.50;;;;;;;17.86;56.42;100737.13;5072249;28;20158;-62
2023/03/20 05:59:37;;;;;;;6.40;1.30;;;;;;;17.85;56.24;100741.19;5074165;28;20269;-63
2023/03/20 06:02:02;;;;;;;5.37;1.70;;;;;;;17.86;56.58;100748.56;5074129;28;20217;-63
2023/03/20 06:04:28;;;;;;;3.20;1.50;;;;;;;17.85;56.54;100749.78;5057447;28;20189;-63
2023/03/20 06:06:53;;;;;;;2.93;1.67;;;;;;;17.86;56.43;100753.47;5067295;28;20261;-64
2023/03/20 06:09:19;;;;;;;3.67;1.67;;;;;;;17.87;56.47;100763.69;5071782;28;20167;-64
2023/03/20 06:11:45;;;;;;;2.07;1.23;;;;;;;17.87;56.42;100761.69;5071279;28;20171;-63
2023/03/20 06:14:10;;;;;;;2.33;1.30;;;;;;;17.87;56.49;100763.69;5071656;28;20205;-63
2023/03/20 06:16:36;;;;;;;2.30;1.30;;;;;;;17.86;56.39;100762.84;5076700;28;20437;-64
2023/03/20 06:19:01;;;;;;;2.97;1.33;;;;;;;17.86;56.26;100765.69;5091938;28;20170;-63
2023/03/20 06:21:27;;;;;;;2.07;1.20;;;;;;;17.86;56.33;100764.88;5089032;28;20631;-63
2023/03/20 06:23:53;;;;;;;2.17;1.23;;;;;;;17.88;56.46;100777.59;5090113;28;20187;-63
2023/03/20 06:26:19;;;;;;;2.80;1.30;;;;;;;17.87;56.20;100786.53;5091494;28;20170;-63
2023/03/20 06:28:45;;;;;;;2.37;1.30;;;;;;;17.87;56.48;100786.53;5091551;28;20411;-63
2023/03/20 06:31:11;;;;;;;2.57;1.53;;;;;;;17.86;56.36;100788.56;5068399;28;20772;-64
2023/03/20 06:33:36;;;;;;;2.83;1.40;;;;;;;17.85;56.26;100784.03;5071311;28;20171;-63
2023/03/20 06:36:03;;;;;;;1.93;1.10;;;;;;;17.86;56.47;100793.44;5071487;28;20269;-64
2023/03/20 06:38:28;;;;;;;2.30;1.37;;;;;;;17.85;56.70;100788.94;5070962;28;20270;-64
2023/03/20 06:40:53;;;;;;;2.53;1.50;;;;;;;17.84;56.14;100796.66;5070502;28;20436;-64
2023/03/20 06:43:19;;;;;;;2.30;1.43;;;;;;;17.86;56.31;100804.88;5073360;28;20657;-64
2023/03/20 06:45:45;;;;;;;2.23;1.20;;;;;;;17.85;56.47;100794.66;5052995;28;20223;-64
2023/03/20 06:48:10;;;;;;;2.43;1.40;;;;;;;17.85;56.25;100806.88;5070016;28;20202;-63
2023/03/20 06:50:36;;;;;;;2.50;1.30;;;;;;;17.85;56.41;100808.94;5073286;28;20183;-64
2023/03/20 06:53:02;;;;;;;2.53;1.43;;;;;;;17.84;56.65;100819.50;5053030;28;20163;-64
2023/03/20 06:55:27;;;;;;;2.43;1.30;;;;;;;17.84;56.51;100819.50;5052627;28;20179;-63
2023/03/20 06:57:52;;;;;;;2.30;1.33;;;;;;;17.84;56.37;100821.53;5070625;28;20187;-63
2023/03/20 07:00:19;;;;;;;2.57;1.30;;;;;;;17.84;56.56;100830.09;5070618;28;20184;-64
2023/03/20 07:02:44;;;;;;;2.40;1.30;;;;;;;17.83;56.48;100826.44;5070984;28;20171;-64
2023/03/20 07:05:10;;;;;;;3.23;1.40;;;;;;;17.85;56.58;100826.88;5080686;28;20788;-63
2023/03/20 07:07:35;;;;;;;2.00;1.10;;;;;;;17.85;56.51;100824.03;5066476;28;20233;-63
2023/03/20 07:10:03;;;;;;;2.00;1.53;;;;;;;17.85;56.66;100823.22;5074105;28;20163;-64
2023/03/20 07:12:28;;;;;;;2.20;1.47;;;;;;;17.86;56.41;100825.69;5073416;28;20186;-64
2023/03/20 07:14:54;;;;;;;2.47;1.40;;;;;;;17.84;56.43;100828.09;5091159;28;20424;-63
2023/03/20 07:17:21;;;;;;;2.27;1.30;;;;;;;17.86;56.48;100828.53;5038978;28;20248;-64
2023/03/20 07:19:46;;;;;;;2.20;1.30;;;;;;;17.86;56.58;100822.00;5070545;28;20433;-64
2023/03/20 07:22:20;;;;;;;2.40;1.40;;;;;;;17.86;56.68;100824.88;5071940;28;20931;-63
2023/03/20 07:24:46;;;;;;;2.37;1.30;;;;;;;17.86;56.30;100822.81;5033743;28;20164;-64
2023/03/20 07:27:11;;;;;;;2.27;1.27;;;;;;;17.86;56.46;100825.69;5069349;28;20467;-64
2023/03/20 07:29:36;;;;;;;1.90;1.03;;;;;;;17.85;56.53;100821.16;5051954;28;20202;-64
2023/03/20 07:32:02;;;;;;;2.80;1.67;;;;;;;17.85;56.50;100820.38;5065073;28;20194;-64
2023/03/20 07:34:27;;;;;;;1.70;1.00;;;;;;;17.85;56.41;100814.66;5070053;28;20194;-64
2023/03/20 07:36:53;;;;;;;2.03;1.20;;;;;;;17.85;56.20;100815.47;5069847;28;20186;-64
2023/03/20 07:39:18;;;;;;;2.43;1.40;;;;;;;17.84;56.47;100804.38;5069813;28;20173;-64
2023/03/20 07:41:44;;;;;;;2.30;1.10;;;;;;;17.86;56.65;100813.44;5053848;28;20229;-64
2023/03/20 07:44:09;;;;;;;1.80;1.10;;;;;;;17.86;56.54;100817.13;5069939;28;20171;-64
2023/03/20 07:46:35;;;;;;;3.80;1.50;;;;;;;17.87;56.70;100807.38;5056529;28;20224;-64
2023/03/20 07:49:00;;;;;;;2.67;1.70;;;;;;;17.85;56.49;100815.47;5059439;28;20202;-64
2023/03/20 07:51:25;;;;;;;2.30;1.20;;;;;;;17.85;56.46;100821.16;5088051;28;20183;-64
2023/03/20 07:53:51;;;;;;;2.07;1.07;;;;;;;17.87;56.46;100817.97;5069460;28;20194;-64
2023/03/20 07:56:16;;;;;;;2.20;1.33;;;;;;;17.88;56.29;100814.75;5069201;28;20240;-64
2023/03/20 07:58:42;;;;;;;2.77;1.43;;;;;;;17.89;56.19;100816.41;5071870;28;20187;-64
2023/03/20 08:01:07;;;;;;;3.13;1.60;;;;;;;17.88;56.27;100808.19;5069607;28;20171;-63
2023/03/20 08:03:33;;;;;;;2.00;1.20;;;;;;;17.87;56.43;100806.53;5036192;28;20186;-63
2023/03/20 08:05:58;;;;;;;2.00;1.30;;;;;;;17.88;56.27;100809.03;5069936;28;20214;-64
2023/03/20 08:08:24;;;;;;;2.03;1.10;;;;;;;17.88;56.31;100813.91;5051344;28;20195;-64
2023/03/20 08:10:49;;;;;;;2.80;1.30;;;;;;;17.88;56.36;100813.91;5079046;28;20221;-64
2023/03/20 08:13:15;;;;;;;2.43;1.40;;;;;;;17.88;56.10;100814.75;5089957;28;20914;-63
2023/03/20 08:15:40;;;;;;;2.10;1.20;;;;;;;17.87;56.13;100820.81;5088976;28;20212;-64
2023/03/20 08:18:06;;;;;;;2.57;1.10;;;;;;;17.88;56.41;100814.75;5088882;28;20260;-64
2023/03/20 08:20:31;;;;;;;2.50;1.30;;;;;;;17.87;56.26;100823.66;5084776;28;20186;-64
2023/03/20 08:22:56;;;;;;;1.97;1.30;;;;;;;17.88;56.02;100825.31;5089231;28;20182;-64
2023/03/20 08:25:22;;;;;;;2.47;1.50;;;;;;;17.89;56.26;100826.97;5081162;28;20209;-64
2023/03/20 08:27:47;;;;;;;2.83;1.40;;;;;;;17.88;56.33;100834.75;5033975;28;20191;-64
2023/03/20 08:30:13;;;;;;;3.67;1.50;;;;;;;17.89;56.26;100842.09;5069375;28;20248;-64
2023/03/20 08:32:38;;;;;;;2.13;1.07;;;;;;;17.88;56.21;100834.75;5069356;28;20175;-64
2023/03/20 08:35:04;;;;;;;1.77;1.10;;;;;;;17.89;56.34;100839.25;5068877;28;20634;-64
2023/03/20 08:37:30;;;;;;;2.77;1.33;;;;;;;17.88;56.27;100837.59;5069233;28;20216;-64
2023/03/20 08:39:55;;;;;;;1.90;1.20;;;;;;;17.88;56.36;100833.91;5056311;28;20206;-63
2023/03/20 08:42:21;;;;;;;2.00;1.20;;;;;;;17.89;56.47;100839.25;5074424;28;20246;-64
2023/03/20 08:44:47;;;;;;;2.40;1.30;;;;;;;17.90;56.47;100845.81;5074168;28;20185;-64
2023/03/20 08:47:12;;;;;;;2.07;1.30;;;;;;;17.90;56.37;100854.38;5092139;28;20222;-64
2023/03/20 08:49:38;;;;;;;2.20;1.50;;;;;;;17.90;56.28;100846.63;5088088;28;20277;-62
2023/03/20 08:52:03;;;;;;;2.10;1.30;;;;;;;17.90;56.15;100845.81;5091959;28;20166;-62
2023/03/20 08:54:29;;;;;;;2.07;1.23;;;;;;;17.89;56.24;100847.81;5086652;28;20182;-62
2023/03/20 08:56:55;;;;;;;2.40;1.27;;;;;;;17.91;56.07;100851.13;5076188;28;20175;-62
2023/03/20 08:59:20;;;;;;;2.37;1.20;;;;;;;17.90;56.21;100845.81;5073007;28;20171;-62
2023/03/20 09:01:46;;;;;;;2.13;1.37;;;;;;;17.89;56.22;100850.69;5076205;28;20190;-61
2023/03/20 09:04:14;;;;;;;2.00;1.10;;;;;;;17.89;56.15;100850.69;5074263;28;20167;-62
2023/03/20 09:06:40;;;;;;;3.10;1.30;;;;;;;17.88;56.14;100846.16;5085427;28;20276;-62
2023/03/20 09:09:06;;;;;;;2.60;1.17;;;;;;;17.88;56.30;100860.44;5074890;28;20437;-63
2023/03/20 09:11:31;;;;;;;2.50;1.23;;;;;;;17.90;56.51;100845.81;5072595;28;20785;-63
2023/03/20 09:13:58;;;;;;;3.20;1.20;;;;;;;17.87;56.10;100844.50;5056996;28;20191;-63
2023/03/20 09:16:24;;;;;;;1.90;1.10;;;;;;;17.87;56.47;100846.53;5072279;28;20175;-63
2023/03/20 09:18:49;;;;;;;2.17;1.20;;;;;;;17.89;55.98;100856.38;5072893;28;20424;-63
2023/03/20 09:21:15;;;;;;;2.77;1.10;;;;;;;17.90;56.13;100849.47;5072592;28;20233;-63
2023/03/20 09:23:40;;;;;;;2.10;1.37;;;;;;;17.90;56.22;100846.63;5074255;28;20187;-63
2023/03/20 09:26:06;;;;;;;2.60;1.40;;;;;;;17.87;56.31;100857.94;5072313;28;20167;-63
2023/03/20 09:28:31;;;;;;;2.53;1.60;;;;;;;17.87;56.58;100855.94;5055716;28;20206;-63
2023/03/20 09:30:57;;;;;;;1.80;1.10;;;;;;;17.89;56.01;100856.38;5073431;28;20202;-63
2023/03/20 09:33:22;;;;;;;1.90;1.30;;;;;;;17.88;56.09;100859.59;5072261;28;20171;-63
2023/03/20 09:35:48;;;;;;;2.70;1.20;;;;;;;17.91;56.45;100870.31;5074287;28;20179;-63
2023/03/20 09:38:14;;;;;;;2.40;1.57;;;;;;;17.88;56.26;100871.88;5071902;28;20920;-62
2023/03/20 09:40:45;;;;;;;3.03;1.13;;;;;;;17.88;56.13;100866.16;5040213;28;20198;-62
2023/03/20 09:43:25;;;;;;;3.07;1.40;;;;;;;17.89;55.78;100864.97;5071814;28;20446;-63
2023/03/20 09:46:09;;;;;;;2.10;1.30;;;;;;;17.93;56.10;100876.47;5034961;28;20853;-63
2023/03/20 09:49:04;;;;;;;2.47;1.40;;;;;;;17.93;56.30;100874.47;5054156;28;20557;-63
2023/03/20 09:51:37;;;;;;;2.50;1.50;;;;;;;17.92;55.81;100869.13;5047123;28;20438;-63
2023/03/20 09:54:35;;;;;;;3.23;1.17;;;;;;;17.93;56.16;100868.75;5053100;28;20524;-63
2023/03/20 09:57:00;;;;;;;1.87;1.13;;;;;;;17.96;56.31;100870.88;5051948;28;20410;-63
2023/03/20 09:59:26;;;;;;;2.60;1.10;;;;;;;17.92;56.25;100867.09;5052814;28;20468;-63
2023/03/20 10:01:56;;;;;;;2.83;1.47;;;;;;;17.93;56.06;100865.91;5051873;28;20214;-63
2023/03/20 10:04:23;;;;;;;2.10;1.10;;;;;;;17.90;55.88;100863.75;5054596;28;20201;-63
2023/03/20 10:06:49;;;;;;;2.03;1.30;;;;;;;17.90;56.35;100852.34;5056860;28;21009;-62
2023/03/20 10:09:21;;;;;;;1.90;1.10;;;;;;;17.94;56.00;100861.84;5052234;28;20438;-63
2023/03/20 10:11:52;;;;;;;2.50;1.13;;;;;;;17.92;56.41;100851.97;5050389;28;20175;-63
2023/03/20 10:14:36;;;;;;;1.93;1.10;;;;;;;17.94;56.38;100853.28;5051601;28;20441;-63
2023/03/20 10:17:29;;;;;;;2.00;1.23;;;;;;;17.95;56.11;100854.94;5051782;28;20880;-63
2023/03/20 10:20:17;;;;;;;2.10;1.00;;;;;;;17.94;55.94;100847.56;5034031;28;20464;-63
2023/03/20 10:22:52;;;;;;;3.10;1.53;;;;;;;17.91;56.48;100845.41;5050177;28;20540;-63
2023/03/20 10:25:31;;;;;;;2.40;1.40;;;;;;;17.92;55.99;100841.41;5049932;28;20433;-64
2023/03/20 10:27:58;;;;;;;1.80;1.07;;;;;;;17.92;56.10;100837.69;5046638;28;20465;-64
2023/03/20 10:30:45;;;;;;;2.47;1.50;;;;;;;17.95;55.94;100843.50;5052129;28;20874;-64
2023/03/20 10:33:31;;;;;;;1.73;1.03;;;;;;;17.94;55.82;100844.69;5063814;28;20942;-62
2023/03/20 10:36:22;;;;;;;2.10;1.20;;;;;;;17.97;56.08;100846.00;5070545;28;20420;-62
2023/03/20 10:39:01;;;;;;;2.47;1.37;;;;;;;17.98;56.10;100837.06;5029205;28;20431;-62
2023/03/20 10:41:32;;;;;;;3.40;1.63;;;;;;;17.97;55.85;100840.28;5062514;28;20978;-61
2023/03/20 10:43:57;;;;;;;5.10;1.53;;;;;;;17.97;56.15;100846.00;5068744;28;20412;-61
2023/03/20 10:46:29;;;;;;;2.40;1.47;;;;;;;17.97;55.98;100846.00;5064676;28;20955;-61
2023/03/20 10:48:59;;;;;;;2.20;1.40;;;;;;;17.99;55.83;100843.59;5053357;28;20617;-61
2023/03/20 10:51:38;;;;;;;2.50;1.80;;;;;;;17.98;55.97;100839.94;5068436;28;20457;-62
2023/03/20 10:54:05;;;;;;;2.60;1.20;;;;;;;17.99;55.88;100843.59;5069723;28;20425;-61
2023/03/20 10:56:38;;;;;;;2.27;0.97;;;;;;;18.00;56.02;100843.25;5055715;28;20458;-64
2023/03/20 10:59:07;;;;;;;2.00;1.20;;;;;;;17.96;56.05;100828.00;5049516;28;20517;-64
2023/03/20 11:01:32;;;;;;;1.90;1.00;;;;;;;17.97;56.01;100835.38;5052707;28;20441;-64
2023/03/20 11:03:58;;;;;;;1.80;1.00;;;;;;;18.00;56.21;100836.69;5050837;28;20413;-64
2023/03/20 11:06:30;;;;;;;2.07;1.07;;;;;;;18.00;56.21;100836.69;5052436;28;20215;-64
2023/03/20 11:08:57;;;;;;;1.90;1.10;;;;;;;17.96;55.98;100839.44;5052055;28;20206;-62
2023/03/20 11:11:26;;;;;;;2.07;1.27;;;;;;;17.97;55.80;100841.09;5070841;28;20415;-62
2023/03/20 11:13:52;;;;;;;2.00;1.20;;;;;;;17.99;56.11;100829.31;5065901;28;20441;-62
2023/03/20 11:16:31;;;;;;;1.67;0.97;;;;;;;18.01;55.81;100829.81;5050851;28;20433;-62
2023/03/20 11:19:03;;;;;;;1.90;1.17;;;;;;;18.00;55.79;100823.25;5051224;28;20182;-62
2023/03/20 11:21:28;;;;;;;2.00;1.23;;;;;;;18.01;55.94;100827.75;5033736;28;20910;-62
2023/03/20 11:23:54;;;;;;;3.37;1.70;;;;;;;17.99;55.78;100827.31;5016011;28;20502;-63
2023/03/20 11:26:31;;;;;;;1.90;1.10;;;;;;;18.00;55.67;100823.25;5049232;28;20325;-63
2023/03/20 11:28:57;;;;;;;3.67;1.60;;;;;;;18.02;56.12;100814.31;5035200;28;20208;-63
2023/03/20 11:31:31;;;;;;;1.80;1.00;;;;;;;18.00;56.56;100822.41;5032389;28;20430;-63
2023/03/20 11:34:25;;;;;;;1.90;1.13;;;;;;;17.99;56.06;100815.03;5051718;28;20202;-63